This is the latest recevied weather packets stored in our database for station/object KY0TEQ-13. If no packets are shown the sender has not sent any weather packets the latest 10 day(s).
| Time | Temp. | Humidity | Pressure | Rain* | Wind** | Luminosity | Snow |
|---|---|---|---|---|---|---|---|
| 1777852759 | 18.33° C | 18% | 1300.5 hPa | 0 mm | - | 228 W/m² | - |
| 1777852457 | 18.89° C | 16% | 1300.2 hPa | 0 mm | - | 59 W/m² | - |
| 1777852154 | 19.44° C | 16% | 1300.5 hPa | 0 mm | - | 112 W/m² | - |
| 1777851851 | 19.44° C | 17% | 1300.6 hPa | 0 mm | - | 342 W/m² | - |
| 1777851549 | 18.33° C | 17% | 1300.5 hPa | 0 mm | - | 347 W/m² | - |
| 1777851245 | 18.33° C | 17% | 1300.6 hPa | 0 mm | - | 132 W/m² | - |
| 1777850942 | 18.89° C | 18% | 1300.6 hPa | 0 mm | - | 343 W/m² | - |
| 1777850639 | 18.89° C | 19% | 1300.7 hPa | 0 mm | - | 149 W/m² | - |
| 1777850337 | 18.89° C | 18% | 1300.7 hPa | 0 mm | - | 394 W/m² | - |
| 1777850034 | 18.89° C | 18% | 1300.9 hPa | 0 mm | - | 172 W/m² | - |
| 1777849730 | 19.44° C | 17% | 1300.9 hPa | 0 mm | - | 399 W/m² | - |
| 1777849427 | 18.33° C | 17% | 1301 hPa | 0 mm | - | 355 W/m² | - |
| 1777849125 | 17.78° C | 20% | 1301.1 hPa | 0 mm | - | 93 W/m² | - |
| 1777848820 | 18.89° C | 17% | 1301 hPa | 0 mm | - | 137 W/m² | - |
| 1777848517 | 18.89° C | 18% | 1301.1 hPa | 0 mm | - | 223 W/m² | - |
| 1777848214 | 18.89° C | 18% | 1301 hPa | 0 mm | - | 425 W/m² | - |
| 1777847912 | 17.78° C | 19% | 1301.2 hPa | 0 mm | - | 166 W/m² | - |
| 1777847609 | 18.89° C | 19% | 1301.2 hPa | 0 mm | - | 115 W/m² | - |
| 1777847305 | 18.33° C | 19% | 1301.5 hPa | 0 mm | - | 575 W/m² | - |
| 1777847003 | 18.33° C | 18% | 1301.5 hPa | 0 mm | - | 188 W/m² | - |
| 1777846701 | 18.89° C | 19% | 1301.3 hPa | 0 mm | - | 165 W/m² | - |
| 1777846399 | 18.89° C | 18% | 1301.6 hPa | 0 mm | - | 223 W/m² | - |
| 1777846094 | 18.89° C | 18% | 1301.7 hPa | 0 mm | - | 148 W/m² | - |
| 1777845792 | 20.56° C | 17% | 1301.2 hPa | 0 mm | - | 491 W/m² | - |
| 1777845488 | 19.44° C | 19% | 1301.7 hPa | 0 mm | - | 677 W/m² | - |
* Rain latest hour (hover to see other rain measurements)
** Current wind speed in m/s (hover to see current wind gust speed)